Time;durP1;ratioP1;P1;durP2;ratioP2;P2;SDS_P1;SDS_P2;PMS_P1;PMS_P2;Temp;Humidity;BMP_temperature;BMP_pressure;BME280_temperature;BME280_humidity;BME280_pressure;Samples;Min_cycle;Max_cycle;Signal;HPM_P1;HPM_P2
2022/08/29 00:01:11;;;;;;;0.40;0.20;;;19.40;99.90;;;;;;5050852;28;20449;-77
2022/08/29 00:03:37;;;;;;;0.40;0.20;;;19.40;99.90;;;;;;5048003;28;20837;-76
2022/08/29 00:06:03;;;;;;;0.40;0.20;;;19.20;99.90;;;;;;5051284;28;20384;-76
2022/08/29 00:08:29;;;;;;;0.40;0.25;;;19.20;99.90;;;;;;5045183;28;20409;-76
2022/08/29 00:10:54;;;;;;;1.10;0.80;;;19.20;99.90;;;;;;5034948;28;20416;-76
2022/08/29 00:13:21;;;;;;;1.50;1.40;;;19.20;99.90;;;;;;5048529;28;20826;-77
2022/08/29 00:15:47;;;;;;;0.40;0.27;;;19.20;99.90;;;;;;5050091;28;20460;-76
2022/08/29 00:18:13;;;;;;;0.40;0.30;;;19.20;99.90;;;;;;5044583;28;20410;-76
2022/08/29 00:20:39;;;;;;;0.40;0.30;;;19.20;99.90;;;;;;5044211;28;20417;-77
2022/08/29 00:23:06;;;;;;;0.40;0.20;;;19.10;99.90;;;;;;5045629;28;20787;-76
2022/08/29 00:25:32;;;;;;;0.55;0.43;;;19.10;99.90;;;;;;5045510;28;20910;-77
2022/08/29 00:27:58;;;;;;;0.50;0.50;;;19.10;99.90;;;;;;5044067;28;20405;-77
2022/08/29 00:30:24;;;;;;;0.80;0.80;;;19.10;99.90;;;;;;5042841;28;20467;-77
2022/08/29 00:32:49;;;;;;;0.40;0.30;;;19.10;99.90;;;;;;5050057;28;20421;-77
2022/08/29 00:35:19;;;;;;;0.40;0.20;;;19.10;99.90;;;;;;5035407;28;20813;-77
2022/08/29 00:37:44;;;;;;;0.40;0.40;;;19.10;99.90;;;;;;5039163;28;20409;-77
2022/08/29 00:40:15;;;;;;;0.40;0.30;;;19.10;99.90;;;;;;5043459;28;20401;-77
2022/08/29 00:42:41;;;;;;;8.68;3.40;;;19.10;99.90;;;;;;5041771;28;20724;-77
2022/08/29 00:45:09;;;;;;;13.63;6.40;;;19.00;99.90;;;;;;5049101;28;20419;-76
2022/08/29 00:47:44;;;;;;;13.10;6.63;;;19.00;99.90;;;;;;5043737;28;20822;-76
2022/08/29 00:50:30;;;;;;;6.40;5.80;;;19.00;99.90;;;;;;5044446;28;20489;-76
2022/08/29 00:52:57;;;;;;;5.88;5.38;;;19.00;99.90;;;;;;5042313;28;20918;-76
2022/08/29 00:55:26;;;;;;;5.90;5.40;;;19.00;99.90;;;;;;5042625;28;20454;-77
2022/08/29 00:57:59;;;;;;;6.03;5.50;;;18.90;99.90;;;;;;5046984;28;20814;-77
2022/08/29 01:00:25;;;;;;;6.40;5.80;;;18.90;99.90;;;;;;5044179;28;20417;-76
2022/08/29 01:02:53;;;;;;;7.00;6.30;;;18.80;99.90;;;;;;5050053;28;20397;-77
2022/08/29 01:05:19;;;;;;;6.72;6.13;;;18.80;99.90;;;;;;5049028;28;20385;-77
2022/08/29 01:07:46;;;;;;;6.40;5.80;;;18.80;99.90;;;;;;5044669;28;20412;-77
2022/08/29 01:12:14;;;;;;;7.22;6.20;;;18.90;99.90;;;;;;5044822;28;20414;-77
2022/08/29 01:12:59;;;;;;;6.30;5.70;;;18.80;99.90;;;;;;5050578;28;20463;-76
2022/08/29 01:15:26;;;;;;;6.20;5.70;;;18.70;99.90;;;;;;5051859;28;20442;-77
2022/08/29 01:17:53;;;;;;;6.78;5.82;;;18.80;99.90;;;;;;5044757;28;20416;-77
2022/08/29 01:20:38;;;;;;;6.13;5.63;;;18.90;99.90;;;;;;5051718;28;20554;-77
2022/08/29 01:23:22;;;;;;;7.57;5.78;;;18.80;99.90;;;;;;5053061;28;20401;-77
2022/08/29 01:25:50;;;;;;;6.70;6.00;;;18.70;99.90;;;;;;5043702;28;20773;-77
2022/08/29 01:28:21;;;;;;;6.47;5.88;;;18.70;99.90;;;;;;5045955;28;20407;-77
2022/08/29 01:31:08;;;;;;;6.45;5.75;;;18.80;99.90;;;;;;5052143;28;20958;-76
2022/08/29 01:33:48;;;;;;;6.10;5.60;;;18.70;99.90;;;;;;5044148;28;20423;-76
2022/08/29 01:36:18;;;;;;;5.78;5.20;;;18.60;99.90;;;;;;5044421;28;20415;-76
2022/08/29 01:38:44;;;;;;;6.20;5.60;;;18.60;99.90;;;;;;5050603;28;20860;-76
2022/08/29 01:41:11;;;;;;;6.10;5.35;;;18.60;99.90;;;;;;5039980;28;20415;-76
2022/08/29 01:43:48;;;;;;;6.10;5.50;;;18.50;99.90;;;;;;5050430;28;20406;-76
2022/08/29 01:46:18;;;;;;;6.20;5.60;;;18.60;99.90;;;;;;5049317;28;20408;-76
2022/08/29 01:48:44;;;;;;;6.30;5.57;;;18.60;99.90;;;;;;5050139;28;20938;-76
2022/08/29 01:51:11;;;;;;;6.55;5.85;;;18.60;99.90;;;;;;5052264;28;20419;-76
2022/08/29 01:53:37;;;;;;;5.60;5.20;;;18.60;99.90;;;;;;5050814;28;20409;-76
2022/08/29 01:56:19;;;;;;;7.03;5.80;;;18.50;99.90;;;;;;5045080;28;20414;-76
2022/08/29 01:58:47;;;;;;;6.10;5.60;;;18.40;99.90;;;;;;5043505;28;20420;-76
2022/08/29 02:01:17;;;;;;;7.18;5.35;;;18.40;99.90;;;;;;5049282;28;20455;-76
2022/08/29 02:03:42;;;;;;;6.23;5.63;;;18.40;99.90;;;;;;5046658;28;20459;-76
2022/08/29 02:06:09;;;;;;;6.43;5.47;;;18.40;99.90;;;;;;5051705;28;20397;-76
2022/08/29 02:08:36;;;;;;;6.20;5.60;;;18.40;99.90;;;;;;5049983;28;20414;-76
2022/08/29 02:11:02;;;;;;;6.40;5.90;;;18.40;99.90;;;;;;5051236;28;20419;-76
2022/08/29 02:13:28;;;;;;;6.60;6.00;;;18.40;99.90;;;;;;5049124;28;20763;-76
2022/08/29 02:15:53;;;;;;;6.63;6.03;;;18.20;99.90;;;;;;5051588;28;20417;-76
2022/08/29 02:18:20;;;;;;;7.13;5.80;;;18.30;99.90;;;;;;5051699;28;20507;-76
2022/08/29 02:20:45;;;;;;;6.43;5.82;;;18.30;99.90;;;;;;5051401;28;20459;-76
2022/08/29 02:23:12;;;;;;;7.43;6.40;;;18.40;99.90;;;;;;5050043;28;20903;-76
2022/08/29 02:25:40;;;;;;;6.40;5.80;;;18.40;99.90;;;;;;5052542;28;20385;-76
2022/08/29 02:28:06;;;;;;;6.40;5.80;;;18.40;99.90;;;;;;5050519;28;20418;-76
2022/08/29 02:30:32;;;;;;;5.80;5.25;;;18.40;99.90;;;;;;5051053;28;20436;-76
2022/08/29 02:32:57;;;;;;;5.90;5.40;;;18.30;99.90;;;;;;5051847;28;20417;-76
2022/08/29 02:35:23;;;;;;;6.35;5.75;;;18.20;99.90;;;;;;5044252;28;20412;-76
2022/08/29 02:37:48;;;;;;;6.50;5.90;;;18.10;99.90;;;;;;5051320;28;20870;-76
2022/08/29 02:40:14;;;;;;;6.30;5.77;;;18.10;99.90;;;;;;5052654;28;20400;-76
2022/08/29 02:42:40;;;;;;;7.00;6.30;;;18.10;99.90;;;;;;5052361;28;20448;-76
2022/08/29 02:45:06;;;;;;;6.50;5.87;;;18.00;99.90;;;;;;5052750;28;20410;-76
2022/08/29 02:47:35;;;;;;;6.65;6.05;;;18.00;99.90;;;;;;5048907;28;20409;-76
2022/08/29 02:50:04;;;;;;;6.20;5.60;;;17.90;99.90;;;;;;5048306;28;20407;-76
2022/08/29 02:52:30;;;;;;;6.00;5.50;;;17.90;99.90;;;;;;5051752;28;20964;-76
2022/08/29 02:54:55;;;;;;;6.60;6.00;;;17.90;99.90;;;;;;5052378;28;20409;-76
2022/08/29 02:57:21;;;;;;;5.90;5.40;;;17.70;99.90;;;;;;5052117;28;20417;-76
2022/08/29 02:59:46;;;;;;;6.32;5.70;;;17.70;99.90;;;;;;5047575;28;20405;-76
2022/08/29 03:02:12;;;;;;;6.30;5.80;;;17.60;99.90;;;;;;5051429;28;20424;-76
2022/08/29 03:04:37;;;;;;;6.20;5.55;;;17.60;99.90;;;;;;5042739;28;20449;-76
2022/08/29 03:07:04;;;;;;;13.10;5.70;;;17.60;99.90;;;;;;5049418;28;20411;-76
2022/08/29 03:09:30;;;;;;;6.15;5.65;;;17.50;99.90;;;;;;5053380;28;20381;-76
2022/08/29 03:11:55;;;;;;;6.45;5.85;;;17.50;99.90;;;;;;5046563;28;20848;-76
2022/08/29 03:14:21;;;;;;;6.37;5.77;;;17.50;99.90;;;;;;5047880;28;20402;-76
2022/08/29 03:16:47;;;;;;;6.93;6.15;;;17.50;99.90;;;;;;5050004;28;20409;-76
2022/08/29 03:19:13;;;;;;;6.25;5.65;;;17.50;99.90;;;;;;5048768;28;22195;-78
2022/08/29 03:21:38;;;;;;;7.20;6.50;;;17.40;99.90;;;;;;5049668;28;20498;-76
2022/08/29 03:24:04;;;;;;;6.70;6.10;;;17.40;99.90;;;;;;5048978;28;20409;-76
2022/08/29 03:26:30;;;;;;;6.72;6.10;;;17.40;99.90;;;;;;5045480;28;20397;-76
2022/08/29 03:28:55;;;;;;;7.87;7.17;;;17.30;99.90;;;;;;5050918;28;20420;-76
2022/08/29 03:31:21;;;;;;;6.28;5.68;;;17.20;99.90;;;;;;5049988;28;20393;-75
2022/08/29 03:33:46;;;;;;;7.00;6.40;;;17.20;99.90;;;;;;5052660;28;20390;-75
2022/08/29 03:36:12;;;;;;;7.00;6.30;;;17.30;99.90;;;;;;5052053;28;20409;-75
2022/08/29 03:38:38;;;;;;;8.38;6.30;;;17.20;99.90;;;;;;5052908;28;20420;-75
2022/08/29 03:41:07;;;;;;;7.05;6.35;;;17.20;99.90;;;;;;5049019;28;20997;-76
2022/08/29 03:43:33;;;;;;;6.50;5.90;;;17.20;99.90;;;;;;5040928;28;20401;-75
2022/08/29 03:45:58;;;;;;;6.45;5.85;;;17.10;99.90;;;;;;5051645;28;20378;-75
2022/08/29 03:48:24;;;;;;;7.10;6.45;;;17.00;99.90;;;;;;5050930;28;20517;-75
2022/08/29 03:50:49;;;;;;;6.93;6.23;;;17.00;99.90;;;;;;5053415;28;20389;-76
2022/08/29 03:53:15;;;;;;;6.43;5.82;;;17.00;99.90;;;;;;5051708;28;20432;-75
2022/08/29 03:55:41;;;;;;;6.93;6.32;;;17.00;99.90;;;;;;5042592;28;20447;-75
2022/08/29 03:58:06;;;;;;;7.00;6.40;;;16.90;99.90;;;;;;5042743;28;20510;-75
2022/08/29 04:00:32;;;;;;;7.60;6.90;;;16.90;99.90;;;;;;5065062;22;20798;-75
2022/08/29 04:02:58;;;;;;;7.40;6.80;;;16.90;99.90;;;;;;5041494;28;20451;-76
2022/08/29 04:05:24;;;;;;;6.90;6.30;;;17.00;99.90;;;;;;5027501;28;20414;-76
2022/08/29 04:07:53;;;;;;;6.97;6.27;;;17.00;99.90;;;;;;5043157;28;20411;-77
2022/08/29 04:10:23;;;;;;;6.50;5.90;;;17.10;99.90;;;;;;5023220;28;20475;-76
2022/08/29 04:12:50;;;;;;;7.65;6.85;;;17.20;99.90;;;;;;5044976;28;20413;-76
2022/08/29 04:15:15;;;;;;;8.07;6.60;;;17.20;99.90;;;;;;5042408;28;20420;-77
2022/08/29 04:17:41;;;;;;;7.03;6.43;;;17.20;99.90;;;;;;5042555;28;20411;-77
2022/08/29 04:20:08;;;;;;;7.90;6.30;;;17.20;99.90;;;;;;5040688;28;20411;-75
2022/08/29 04:22:35;;;;;;;6.68;6.07;;;17.20;99.90;;;;;;5033261;28;20470;-75
2022/08/29 04:25:02;;;;;;;7.40;6.70;;;17.10;99.90;;;;;;5036749;28;20871;-76
2022/08/29 04:27:27;;;;;;;6.65;6.03;;;17.10;99.90;;;;;;5050235;28;20415;-76
2022/08/29 04:29:53;;;;;;;7.10;6.40;;;17.10;99.90;;;;;;5039178;28;20424;-76
2022/08/29 04:32:19;;;;;;;8.10;6.50;;;17.00;99.90;;;;;;5023775;28;20407;-76
2022/08/29 04:34:44;;;;;;;7.68;6.88;;;17.00;99.90;;;;;;5038623;28;20931;-76
2022/08/29 04:37:10;;;;;;;7.25;6.53;;;17.10;99.90;;;;;;5026854;28;20418;-76
2022/08/29 04:39:36;;;;;;;7.93;6.43;;;17.00;99.90;;;;;;5044066;28;20402;-76
2022/08/29 04:42:01;;;;;;;8.73;5.90;;;17.00;99.90;;;;;;5026603;28;20403;-75
2022/08/29 04:44:27;;;;;;;8.20;6.37;;;17.00;99.90;;;;;;5045054;28;20414;-76
2022/08/29 04:46:52;;;;;;;8.23;6.43;;;16.90;99.90;;;;;;5042999;28;20411;-76
2022/08/29 04:49:18;;;;;;;7.47;6.67;;;16.90;99.90;;;;;;5034644;28;20401;-75
2022/08/29 04:51:43;;;;;;;7.07;6.38;;;17.00;99.90;;;;;;5043477;28;20779;-76
2022/08/29 04:54:09;;;;;;;7.85;7.25;;;17.00;99.90;;;;;;5048934;28;20405;-76
2022/08/29 04:56:36;;;;;;;8.33;7.53;;;17.20;99.90;;;;;;5045833;28;20412;-75
2022/08/29 04:59:02;;;;;;;9.15;7.70;;;17.30;99.90;;;;;;5043016;28;20414;-75
2022/08/29 05:01:28;;;;;;;10.75;9.10;;;17.40;99.90;;;;;;5043657;28;20409;-75
2022/08/29 05:03:55;;;;;;;10.50;9.20;;;17.40;99.90;;;;;;5042461;28;20922;-76
2022/08/29 05:06:21;;;;;;;10.00;9.00;;;17.40;99.90;;;;;;5041381;28;20455;-76
2022/08/29 05:08:47;;;;;;;9.70;8.02;;;17.30;99.90;;;;;;5040816;28;20506;-76
2022/08/29 05:11:15;;;;;;;8.57;7.78;;;17.20;99.90;;;;;;5040755;28;20494;-76
2022/08/29 05:13:41;;;;;;;8.00;7.30;;;17.10;99.90;;;;;;5031059;28;20409;-76
2022/08/29 05:16:10;;;;;;;8.07;7.38;;;17.00;99.90;;;;;;5045397;28;20697;-76
2022/08/29 05:18:35;;;;;;;10.73;9.63;;;17.00;99.90;;;;;;5043020;28;20449;-76
2022/08/29 05:21:01;;;;;;;10.50;9.40;;;16.90;99.90;;;;;;5026693;28;20421;-76
2022/08/29 05:23:27;;;;;;;10.77;8.93;;;16.90;99.90;;;;;;5039538;28;20417;-75
2022/08/29 05:26:01;;;;;;;9.20;8.30;;;17.00;99.90;;;;;;5043594;28;20456;-76
2022/08/29 05:28:29;;;;;;;10.20;9.20;;;17.00;99.90;;;;;;5050792;28;20500;-76
2022/08/29 05:30:55;;;;;;;9.43;8.52;;;17.10;99.90;;;;;;5042802;28;20402;-76
2022/08/29 05:33:20;;;;;;;9.50;8.50;;;17.10;99.90;;;;;;5034160;28;20749;-76
2022/08/29 05:35:46;;;;;;;9.30;8.40;;;17.10;99.90;;;;;;5044039;28;20401;-76
2022/08/29 05:38:13;;;;;;;10.27;9.20;;;17.10;99.90;;;;;;5044267;28;20408;-76
2022/08/29 05:40:40;;;;;;;10.35;9.25;;;17.20;99.90;;;;;;5052406;28;20377;-76
2022/08/29 05:43:06;;;;;;;10.55;9.55;;;17.40;99.90;;;;;;5042041;28;20778;-76
2022/08/29 05:45:32;;;;;;;11.20;8.65;;;17.20;99.90;;;;;;5052386;28;20876;-76
2022/08/29 05:48:02;;;;;;;8.80;8.00;;;17.20;99.90;;;;;;5043947;28;20425;-76
2022/08/29 05:50:27;;;;;;;10.38;9.38;;;17.20;99.90;;;;;;5041411;28;20392;-76
2022/08/29 05:52:53;;;;;;;9.30;8.40;;;17.10;99.90;;;;;;5030772;28;20383;-76
2022/08/29 05:55:18;;;;;;;9.50;8.50;;;17.00;99.90;;;;;;5029761;28;20496;-76
2022/08/29 05:57:44;;;;;;;9.38;8.38;;;17.10;99.90;;;;;;5043235;28;20913;-76
2022/08/29 06:00:11;;;;;;;10.30;9.20;;;17.00;99.90;;;;;;5038946;28;20925;-76
2022/08/29 06:02:37;;;;;;;9.00;8.20;;;17.00;99.90;;;;;;5041657;28;20982;-76
2022/08/29 06:05:03;;;;;;;9.68;8.70;;;17.10;99.90;;;;;;5044575;28;20583;-76
2022/08/29 06:07:30;;;;;;;9.80;8.90;;;17.20;99.90;;;;;;5037902;28;20970;-76
2022/08/29 06:09:56;;;;;;;9.50;8.60;;;17.20;99.90;;;;;;5046630;28;20423;-76
2022/08/29 06:12:21;;;;;;;10.27;8.57;;;17.30;99.90;;;;;;5034636;28;20425;-76
2022/08/29 06:14:47;;;;;;;9.20;8.20;;;17.40;99.90;;;;;;5050461;28;20401;-76
2022/08/29 06:17:12;;;;;;;8.95;8.15;;;17.40;99.90;;;;;;5031880;28;20413;-76
2022/08/29 06:19:39;;;;;;;8.33;7.53;;;17.40;99.90;;;;;;5042179;28;20403;-76
2022/08/29 06:22:07;;;;;;;10.05;8.75;;;17.50;99.90;;;;;;5040848;28;20492;-75
2022/08/29 06:24:33;;;;;;;9.95;9.05;;;17.60;99.90;;;;;;5042545;28;21024;-75
2022/08/29 06:27:00;;;;;;;8.82;8.00;;;17.60;99.90;;;;;;5046926;28;20947;-75
2022/08/29 06:29:26;;;;;;;7.90;7.18;;;17.60;99.90;;;;;;5043268;28;20410;-75
2022/08/29 06:31:54;;;;;;;9.50;7.85;;;17.60;99.90;;;;;;5050340;28;20412;-75
2022/08/29 06:34:20;;;;;;;8.70;7.90;;;17.70;99.90;;;;;;5048622;28;20492;-75
2022/08/29 06:36:45;;;;;;;8.40;7.53;;;17.90;99.90;;;;;;5042172;28;20508;-75
2022/08/29 06:39:11;;;;;;;8.57;7.67;;;17.90;99.90;;;;;;5019240;28;20414;-74
2022/08/29 06:41:39;;;;;;;8.88;7.97;;;18.00;99.90;;;;;;5042106;28;20535;-74
2022/08/29 06:44:06;;;;;;;8.68;7.88;;;18.20;99.90;;;;;;5041137;28;20489;-75
2022/08/29 06:46:35;;;;;;;8.88;7.97;;;18.40;99.90;;;;;;5038777;28;20773;-75
2022/08/29 06:49:02;;;;;;;8.90;8.10;;;18.40;99.90;;;;;;5040634;28;20413;-75
2022/08/29 06:51:31;;;;;;;8.60;7.80;;;18.40;99.90;;;;;;5040314;28;20783;-75
2022/08/29 06:54:01;;;;;;;8.73;7.82;;;18.40;99.90;;;;;;5041571;28;20485;-75
2022/08/29 06:56:27;;;;;;;8.60;7.90;;;18.40;99.90;;;;;;5038453;28;20420;-75
2022/08/29 06:58:53;;;;;;;8.73;7.85;;;18.30;99.90;;;;;;5023614;28;20775;-75
2022/08/29 07:01:22;;;;;;;8.77;7.73;;;18.30;99.90;;;;;;5041469;28;20405;-75
2022/08/29 07:03:48;;;;;;;8.77;7.80;;;18.40;99.90;;;;;;5037237;28;20895;-75
2022/08/29 07:06:15;;;;;;;8.20;7.50;;;18.60;99.90;;;;;;5024129;28;20520;-74
2022/08/29 07:08:40;;;;;;;9.07;8.18;;;18.60;99.90;;;;;;5030451;28;20844;-75
2022/08/29 07:11:06;;;;;;;8.57;7.67;;;18.70;99.90;;;;;;5040157;28;20488;-73
2022/08/29 07:13:33;;;;;;;9.73;8.38;;;18.70;99.90;;;;;;5043420;28;20936;-74
2022/08/29 07:15:59;;;;;;;9.13;8.23;;;18.70;99.90;;;;;;5044917;28;20413;-75
2022/08/29 07:18:25;;;;;;;8.33;7.53;;;18.70;99.90;;;;;;5027187;28;20420;-75
2022/08/29 07:20:51;;;;;;;8.73;7.90;;;18.80;99.90;;;;;;5045576;28;20420;-75
2022/08/29 07:23:17;;;;;;;9.65;7.85;;;18.80;99.90;;;;;;5044764;28;20779;-75
2022/08/29 07:25:42;;;;;;;9.27;7.70;;;18.80;99.90;;;;;;5043164;28;20405;-75
2022/08/29 07:28:08;;;;;;;9.80;7.83;;;18.80;99.90;;;;;;5043484;28;20452;-75
2022/08/29 07:30:33;;;;;;;9.00;7.63;;;18.80;99.90;;;;;;5025338;28;20448;-76
2022/08/29 07:32:59;;;;;;;8.80;7.90;;;18.80;99.90;;;;;;5043221;28;20413;-75
2022/08/29 07:35:25;;;;;;;9.07;7.87;;;19.00;99.90;;;;;;5027309;28;20464;-74
2022/08/29 07:37:55;;;;;;;8.18;7.38;;;19.00;99.90;;;;;;5024334;28;20409;-75
2022/08/29 07:40:21;;;;;;;8.27;7.47;;;19.10;99.90;;;;;;5028163;28;20407;-74
2022/08/29 07:42:46;;;;;;;7.80;7.00;;;19.10;99.90;;;;;;5037906;28;20398;-73
2022/08/29 07:45:13;;;;;;;8.23;7.53;;;19.20;99.90;;;;;;5026365;28;20451;-75
2022/08/29 07:47:39;;;;;;;7.68;6.70;;;19.20;99.90;;;;;;5035505;28;20407;-75
2022/08/29 07:50:08;;;;;;;7.95;7.25;;;19.20;99.90;;;;;;5038953;28;20399;-74
2022/08/29 07:52:34;;;;;;;7.78;7.07;;;19.30;99.90;;;;;;5044206;28;20405;-73
2022/08/29 07:55:00;;;;;;;8.40;7.70;;;19.30;99.90;;;;;;5044649;28;20401;-74
2022/08/29 07:57:26;;;;;;;7.88;7.07;;;19.40;99.90;;;;;;5041012;28;20432;-75
2022/08/29 07:59:51;;;;;;;7.77;7.07;;;19.50;99.90;;;;;;5046346;28;20401;-74
2022/08/29 08:02:17;;;;;;;8.07;7.20;;;19.60;99.90;;;;;;5039930;28;20397;-76
2022/08/29 08:04:42;;;;;;;7.63;6.85;;;19.70;99.90;;;;;;5028770;28;20397;-74
2022/08/29 08:07:09;;;;;;;7.93;7.13;;;19.80;99.90;;;;;;5042382;28;20409;-74
2022/08/29 08:09:36;;;;;;;8.57;7.40;;;19.90;99.90;;;;;;5042573;28;20411;-75
2022/08/29 08:12:04;;;;;;;7.37;6.67;;;20.00;99.90;;;;;;5031753;28;20388;-73
2022/08/29 08:14:29;;;;;;;7.20;6.50;;;20.10;99.90;;;;;;5041199;28;20405;-73
2022/08/29 08:16:55;;;;;;;6.90;6.30;;;20.10;99.90;;;;;;5031214;28;20405;-74
2022/08/29 08:19:20;;;;;;;19.42;15.52;;;20.20;99.90;;;;;;5040057;28;20411;-74
2022/08/29 08:21:46;;;;;;;7.60;6.90;;;20.20;99.90;;;;;;5042336;28;20391;-75
2022/08/29 08:24:11;;;;;;;7.22;6.53;;;20.30;99.90;;;;;;5041621;28;20775;-75
2022/08/29 08:26:37;;;;;;;7.80;6.80;;;20.40;99.90;;;;;;5038793;28;20393;-73
2022/08/29 08:29:03;;;;;;;7.50;6.80;;;20.40;99.90;;;;;;5027057;28;20420;-73
2022/08/29 08:31:29;;;;;;;7.20;6.50;;;20.50;99.90;;;;;;5045950;28;20905;-73
2022/08/29 08:33:55;;;;;;;7.07;6.38;;;20.60;99.90;;;;;;5035299;28;20404;-74
2022/08/29 08:36:30;;;;;;;7.40;6.45;;;20.60;99.90;;;;;;5027310;28;20406;-73
2022/08/29 08:38:58;;;;;;;7.00;6.30;;;20.60;99.90;;;;;;5038564;28;20420;-74
2022/08/29 08:41:45;;;;;;;6.85;6.25;;;20.60;99.90;;;;;;5030187;28;20908;-74
2022/08/29 08:44:40;;;;;;;6.60;5.95;;;20.70;99.90;;;;;;5027170;28;20962;-75
2022/08/29 08:47:08;;;;;;;34.13;30.50;;;20.70;99.90;;;;;;5005687;28;20762;-74
2022/08/29 08:49:46;;;;;;;7.38;6.68;;;21.00;99.90;;;;;;5039409;28;20476;-76
2022/08/29 08:52:24;;;;;;;6.43;5.82;;;21.00;99.90;;;;;;5022774;28;20740;-76
2022/08/29 08:55:27;;;;;;;6.45;5.80;;;21.10;99.90;;;;;;5037315;28;20386;-75
2022/08/29 08:58:14;;;;;;;6.97;6.28;;;21.10;99.90;;;;;;4984303;28;20415;-75
2022/08/29 09:00:51;;;;;;;6.25;5.72;;;21.10;99.90;;;;;;5040587;28;20390;-75
2022/08/29 09:03:38;;;;;;;7.65;6.50;;;21.20;99.90;;;;;;5047579;28;20926;-74
2022/08/29 09:06:32;;;;;;;8.03;6.57;;;21.20;99.90;;;;;;5027934;28;20424;-74
2022/08/29 09:09:28;;;;;;;6.97;6.38;;;21.40;99.90;;;;;;5032539;28;20464;-74
2022/08/29 09:12:13;;;;;;;7.55;6.93;;;21.50;99.90;;;;;;5041335;28;20421;-74
2022/08/29 09:14:50;;;;;;;7.05;6.35;;;21.30;99.90;;;;;;5041261;28;20492;-74
2022/08/29 09:17:22;;;;;;;7.03;6.32;;;21.50;99.90;;;;;;5034163;28;20414;-75
2022/08/29 09:19:50;;;;;;;7.83;6.30;;;21.60;99.90;;;;;;5044690;28;21005;-76
2022/08/29 09:22:23;;;;;;;6.70;5.85;;;21.60;99.90;;;;;;5028750;28;20895;-74
2022/08/29 09:24:58;;;;;;;6.43;5.82;;;21.60;99.90;;;;;;5041530;28;20377;-75
2022/08/29 09:27:27;;;;;;;7.15;6.07;;;21.70;99.90;;;;;;5051783;28;20744;-74
2022/08/29 09:29:58;;;;;;;8.10;5.95;;;21.70;99.90;;;;;;5033798;28;20548;-75
2022/08/29 09:32:24;;;;;;;7.10;6.40;;;21.70;99.90;;;;;;5047290;28;20472;-75
2022/08/29 09:34:50;;;;;;;6.80;5.90;;;21.70;99.90;;;;;;5052939;28;20775;-74
2022/08/29 09:37:26;;;;;;;6.50;5.90;;;21.70;99.90;;;;;;5037653;28;20452;-74
2022/08/29 09:40:00;;;;;;;7.10;5.90;;;21.60;99.90;;;;;;5016268;28;20393;-74
2022/08/29 09:42:33;;;;;;;6.60;6.00;;;21.90;99.90;;;;;;5041560;28;20984;-74
2022/08/29 09:45:23;;;;;;;8.20;6.20;;;22.00;99.90;;;;;;5033340;28;20421;-74
2022/08/29 09:48:05;;;;;;;6.28;5.68;;;21.90;99.90;;;;;;5023845;28;20403;-75
2022/08/29 09:50:31;;;;;;;6.93;6.05;;;21.90;99.90;;;;;;5026708;28;20393;-74
2022/08/29 09:52:59;;;;;;;6.50;5.80;;;22.10;99.90;;;;;;5043276;28;20775;-75
2022/08/29 09:55:33;;;;;;;6.15;5.63;;;22.20;99.90;;;;;;5044214;28;20391;-76
2022/08/29 09:58:06;;;;;;;6.30;5.70;;;22.20;99.90;;;;;;5047844;28;20911;-75
2022/08/29 10:00:37;;;;;;;6.90;6.30;;;22.30;99.90;;;;;;5042156;28;20410;-74
2022/08/29 10:03:07;;;;;;;6.32;5.72;;;22.20;99.90;;;;;;5050488;28;20416;-74
2022/08/29 10:05:36;;;;;;;6.50;5.83;;;22.30;99.90;;;;;;5040800;28;20401;-74
2022/08/29 10:08:04;;;;;;;5.93;5.40;;;22.40;99.90;;;;;;5024922;28;20405;-74
2022/08/29 10:10:34;;;;;;;7.57;6.43;;;22.40;99.90;;;;;;5025259;28;20531;-75
2022/08/29 10:13:18;;;;;;;6.90;6.20;;;22.50;99.90;;;;;;5041958;28;20409;-75
2022/08/29 10:16:08;;;;;;;5.57;5.07;;;22.50;99.90;;;;;;5040125;28;20418;-75
2022/08/29 10:18:51;;;;;;;6.70;6.00;;;22.60;99.90;;;;;;5024913;28;20970;-74
2022/08/29 10:21:45;;;;;;;6.22;5.63;;;22.70;99.90;;;;;;5038911;28;20412;-75
2022/08/29 10:24:39;;;;;;;6.30;5.70;;;22.70;99.90;;;;;;5039860;28;20425;-75
2022/08/29 10:27:29;;;;;;;6.93;5.88;;;22.80;99.90;;;;;;5041333;28;20377;-75
2022/08/29 10:30:11;;;;;;;6.88;6.05;;;23.00;99.90;;;;;;5020954;28;20407;-76
2022/08/29 10:32:58;;;;;;;6.10;5.50;;;23.00;99.90;;;;;;5020911;28;20438;-76
2022/08/29 10:35:57;;;;;;;7.23;5.90;;;23.10;99.90;;;;;;5040841;28;20795;-76
2022/08/29 10:38:32;;;;;;;6.00;5.40;;;23.10;99.90;;;;;;4997060;28;20434;-76
2022/08/29 10:41:10;;;;;;;6.15;5.60;;;23.10;99.90;;;;;;5041738;28;20459;-75
2022/08/29 10:43:47;;;;;;;6.20;5.53;;;23.30;99.90;;;;;;5039233;28;20423;-77
2022/08/29 10:46:50;;;;;;;5.97;5.38;;;23.40;99.90;;;;;;5042582;28;21177;-77
2022/08/29 10:49:32;;;;;;;6.35;5.75;;;23.60;99.90;;;;;;5033123;28;20480;-77
2022/08/29 10:52:15;;;;;;;7.47;5.40;;;23.60;99.90;;;;;;5050166;28;20428;-77
2022/08/29 10:54:59;;;;;;;6.20;5.20;;;23.80;99.90;;;;;;5023053;28;20474;-77
2022/08/29 10:57:40;;;;;;;6.28;5.68;;;23.80;99.90;;;;;;5042908;28;20410;-75
2022/08/29 11:00:23;;;;;;;6.45;5.10;;;23.90;99.90;;;;;;5033563;28;20402;-76
2022/08/29 11:03:05;;;;;;;5.40;4.90;;;23.90;99.90;;;;;;5036488;28;20477;-76
2022/08/29 11:05:39;;;;;;;6.90;5.20;;;24.20;99.90;;;;;;5030780;28;20865;-75
2022/08/29 11:08:12;;;;;;;5.10;4.70;;;24.30;99.90;;;;;;5030962;28;20460;-76
2022/08/29 11:10:42;;;;;;;6.38;5.78;;;24.20;99.90;;;;;;5031021;28;20395;-76
2022/08/29 11:13:28;;;;;;;5.40;5.00;;;24.30;99.90;;;;;;5038270;28;20397;-75
2022/08/29 11:16:01;;;;;;;5.97;5.37;;;24.40;99.90;;;;;;5039848;28;20387;-75
2022/08/29 11:18:44;;;;;;;5.00;4.50;;;24.50;99.90;;;;;;5042244;28;20839;-76
2022/08/29 11:21:27;;;;;;;5.70;5.10;;;24.80;99.90;;;;;;5050577;28;20435;-77
2022/08/29 11:23:54;;;;;;;5.68;5.18;;;25.00;99.90;;;;;;5032538;28;20385;-76
2022/08/29 11:26:23;;;;;;;8.00;5.28;;;25.30;99.90;;;;;;5050714;28;20389;-75
2022/08/29 11:28:53;;;;;;;5.97;5.20;;;25.20;99.90;;;;;;5050330;28;20389;-77
2022/08/29 11:31:34;;;;;;;5.43;4.80;;;25.30;99.90;;;;;;5032753;28;20401;-76
2022/08/29 11:34:14;;;;;;;6.00;5.40;;;25.90;99.90;;;;;;5050186;28;20397;-75
2022/08/29 11:37:13;;;;;;;5.95;5.35;;;26.90;98.40;;;;;;5050187;28;20527;-75
2022/08/29 11:40:16;;;;;;;4.97;4.30;;;27.30;97.30;;;;;;5050353;28;20433;-77
2022/08/29 11:42:46;;;;;;;4.60;4.20;;;27.50;94.40;;;;;;4967807;28;20402;-76
2022/08/29 11:45:20;;;;;;;4.78;4.38;;;27.40;94.10;;;;;;5050493;28;20557;-76
2022/08/29 11:47:46;;;;;;;4.50;4.10;;;28.40;91.80;;;;;;5050319;28;20388;-77
2022/08/29 11:50:28;;;;;;;4.90;4.40;;;28.60;90.00;;;;;;5049042;28;20740;-76
2022/08/29 11:53:05;;;;;;;4.90;4.50;;;28.70;88.90;;;;;;5049998;28;20389;-76
2022/08/29 11:56:04;;;;;;;5.10;4.60;;;28.50;89.80;;;;;;5050151;28;20388;-75
2022/08/29 11:58:32;;;;;;;5.05;4.60;;;28.70;88.70;;;;;;5049926;28;20436;-77
2022/08/29 12:00:58;;;;;;;5.22;4.72;;;28.10;90.90;;;;;;5049924;28;20425;-76
2022/08/29 12:03:33;;;;;;;4.85;4.40;;;28.70;89.40;;;;;;5049709;28;20409;-76
2022/08/29 12:06:39;;;;;;;4.82;4.28;;;28.20;89.40;;;;;;5050018;28;20425;-77
2022/08/29 12:09:17;;;;;;;5.15;4.45;;;29.30;87.00;;;;;;5049948;28;20391;-77
2022/08/29 12:12:03;;;;;;;5.40;4.43;;;29.20;82.40;;;;;;5049871;28;20378;-76
2022/08/29 12:14:49;;;;;;;5.68;4.45;;;29.20;88.80;;;;;;5049905;28;20503;-77
2022/08/29 12:17:24;;;;;;;4.35;4.05;;;29.10;84.30;;;;;;5049783;28;20817;-77
2022/08/29 12:19:52;;;;;;;5.90;4.50;;;28.90;85.40;;;;;;5049821;28;20377;-77
2022/08/29 12:22:43;;;;;;;5.28;4.78;;;28.50;86.00;;;;;;5049919;28;20385;-76
2022/08/29 12:25:27;;;;;;;7.20;4.90;;;29.10;85.40;;;;;;5049864;28;20389;-76
2022/08/29 12:28:01;;;;;;;5.55;4.90;;;28.90;85.10;;;;;;5049821;28;20533;-78
2022/08/29 12:30:36;;;;;;;5.35;4.85;;;28.80;88.60;;;;;;5050072;28;20468;-77
2022/08/29 12:33:19;;;;;;;4.80;4.40;;;28.40;90.00;;;;;;5049668;28;20391;-78
2022/08/29 12:35:44;;;;;;;5.13;4.63;;;28.50;86.70;;;;;;5049933;28;20396;-77
2022/08/29 12:38:49;;;;;;;6.07;5.10;;;28.80;86.30;;;;;;5048017;28;20409;-76
2022/08/29 12:41:33;;;;;;;5.40;4.90;;;29.00;87.00;;;;;;5049875;28;20449;-77
2022/08/29 12:44:01;;;;;;;4.88;4.47;;;29.00;85.00;;;;;;5049347;28;20429;-77
2022/08/29 12:46:39;;;;;;;7.00;5.00;;;28.10;87.00;;;;;;5031946;28;20484;-77
2022/08/29 12:49:19;;;;;;;5.80;5.30;;;28.00;87.10;;;;;;5050650;28;20673;-78
2022/08/29 12:51:53;;;;;;;5.57;5.15;;;28.20;91.70;;;;;;5046504;28;20390;-78
2022/08/29 12:54:32;;;;;;;4.93;4.53;;;29.10;86.60;;;;;;5038627;28;20482;-78
2022/08/29 12:56:58;;;;;;;5.38;4.88;;;28.20;91.50;;;;;;5020804;28;20462;-78
2022/08/29 12:59:24;;;;;;;5.78;5.30;;;28.70;89.90;;;;;;5020090;28;20398;-77
2022/08/29 13:01:52;;;;;;;5.10;4.60;;;28.60;86.30;;;;;;5040568;28;20484;-77
2022/08/29 13:04:20;;;;;;;5.50;5.00;;;29.20;83.80;;;;;;5041495;28;20425;-76